Time;durP1;ratioP1;P1;durP2;ratioP2;P2;SDS_P1;SDS_P2;PMS_P1;PMS_P2;Temp;Humidity;BMP_temperature;BMP_pressure;BME280_temperature;BME280_humidity;BME280_pressure;Samples;Min_cycle;Max_cycle;Signal;HPM_P1;HPM_P2
2021/01/27 00:00:24;;;;;;;13.90;11.50;;;3.00;1.00;;;;;;5114540;28;20175;-64
2021/01/27 00:02:50;;;;;;;21.90;13.07;;;2.60;1.00;;;;;;5114677;28;20453;-67
2021/01/27 00:05:19;;;;;;;15.10;11.20;;;2.60;1.00;;;;;;5114043;28;20258;-67
2021/01/27 00:07:45;;;;;;;15.65;11.88;;;2.70;1.00;;;;;;5114357;28;20227;-67
2021/01/27 00:10:11;;;;;;;17.87;10.90;;;2.70;1.00;;;;;;5115802;28;20254;-67
2021/01/27 00:12:37;;;;;;;12.60;10.05;;;2.90;1.00;;;;;;5116125;28;20235;-67
2021/01/27 00:15:23;;;;;;;15.48;11.10;;;2.80;1.00;;;;;;5115913;28;20250;-67
2021/01/27 00:17:48;;;;;;;14.90;10.90;;;2.70;1.00;;;;;;5116279;28;20565;-67
2021/01/27 00:20:16;;;;;;;16.23;11.87;;;2.80;1.00;;;;;;5116303;28;20620;-67
2021/01/27 00:22:42;;;;;;;16.38;9.73;;;2.70;1.00;;;;;;5115081;28;20225;-67
2021/01/27 00:25:09;;;;;;;16.43;11.70;;;2.70;1.00;;;;;;5115951;28;20642;-64
2021/01/27 00:27:34;;;;;;;17.55;11.00;;;2.60;1.00;;;;;;5116241;28;20208;-67
2021/01/27 00:30:00;;;;;;;13.70;10.03;;;2.50;1.00;;;;;;5116134;28;20179;-65
2021/01/27 00:32:28;;;;;;;18.90;10.50;;;2.70;1.00;;;;;;5115907;28;20190;-68
2021/01/27 00:34:54;;;;;;;21.05;11.20;;;2.60;1.00;;;;;;5115474;28;20628;-64
2021/01/27 00:37:21;;;;;;;16.23;11.13;;;2.70;1.00;;;;;;5115738;28;20186;-64
2021/01/27 00:39:46;;;;;;;17.15;10.80;;;2.80;1.00;;;;;;5115418;28;20421;-63
2021/01/27 00:42:12;;;;;;;17.80;10.97;;;2.80;1.00;;;;;;5115732;28;20171;-67
2021/01/27 00:44:37;;;;;;;18.27;10.83;;;2.80;1.00;;;;;;5115535;28;20282;-67
2021/01/27 00:47:03;;;;;;;12.97;9.87;;;2.70;1.00;;;;;;5114600;28;20191;-67
2021/01/27 00:49:28;;;;;;;14.50;11.23;;;2.80;1.00;;;;;;5114510;28;20274;-67
2021/01/27 00:51:54;;;;;;;19.40;11.50;;;2.80;1.00;;;;;;5115389;28;20233;-67
2021/01/27 00:54:19;;;;;;;17.23;9.90;;;2.90;1.00;;;;;;5115319;28;20711;-67
2021/01/27 00:56:45;;;;;;;14.23;11.30;;;2.80;1.00;;;;;;5114301;28;20626;-67
2021/01/27 00:59:11;;;;;;;13.87;10.23;;;2.80;1.00;;;;;;5115352;28;20199;-67
2021/01/27 01:01:36;;;;;;;18.50;11.60;;;2.80;1.00;;;;;;5115105;28;20180;-64
2021/01/27 01:04:03;;;;;;;14.80;11.37;;;3.00;1.00;;;;;;5115013;28;20283;-68
2021/01/27 01:06:29;;;;;;;12.55;10.77;;;3.00;1.00;;;;;;5114866;28;20186;-68
2021/01/27 01:08:55;;;;;;;15.87;11.23;;;3.20;1.00;;;;;;5115045;28;20501;-63
2021/01/27 01:11:20;;;;;;;18.40;12.40;;;3.00;1.00;;;;;;5114920;28;20468;-63
2021/01/27 01:13:46;;;;;;;19.70;12.10;;;2.90;1.00;;;;;;5114707;28;20290;-64
2021/01/27 01:16:11;;;;;;;19.80;13.13;;;2.80;1.00;;;;;;5114053;28;20199;-63
2021/01/27 01:18:37;;;;;;;23.10;14.00;;;2.90;1.00;;;;;;5114848;28;20179;-63
2021/01/27 01:21:03;;;;;;;25.43;13.60;;;2.80;1.00;;;;;;5115274;28;20179;-62
2021/01/27 01:23:28;;;;;;;24.95;13.80;;;2.90;1.00;;;;;;5115273;28;20258;-62
2021/01/27 01:25:54;;;;;;;17.50;13.10;;;2.90;1.00;;;;;;5114844;28;20309;-63
2021/01/27 01:28:20;;;;;;;20.53;13.70;;;3.20;9.70;;;;;;5113878;28;20198;-63
2021/01/27 01:30:47;;;;;;;25.00;14.13;;;3.20;3.40;;;;;;5114639;28;20763;-63
2021/01/27 01:33:18;;;;;;;23.65;13.70;;;3.20;1.00;;;;;;5114277;28;20475;-63
2021/01/27 01:35:45;;;;;;;19.63;13.15;;;3.30;1.00;;;;;;5114602;28;20262;-63
2021/01/27 01:38:12;;;;;;;21.95;14.40;;;3.40;1.00;;;;;;5114817;28;20179;-67
2021/01/27 01:40:49;;;;;;;22.58;13.05;;;3.50;1.00;;;;;;5113668;28;20167;-67
2021/01/27 01:43:19;;;;;;;22.02;14.30;;;3.50;1.00;;;;;;5114460;28;20176;-67
2021/01/27 01:45:53;;;;;;;24.45;15.57;;;3.60;1.00;;;;;;5114533;28;20190;-63
2021/01/27 01:48:19;;;;;;;25.00;15.00;;;3.70;1.00;;;;;;5114378;28;20194;-63
2021/01/27 01:50:48;;;;;;;23.33;14.77;;;3.80;1.00;;;;;;5113926;28;20178;-63
2021/01/27 01:53:14;;;;;;;20.83;14.40;;;3.70;1.00;;;;;;5114229;28;20242;-64
2021/01/27 01:55:41;;;;;;;24.73;15.13;;;3.60;1.00;;;;;;5114581;28;20507;-63
2021/01/27 01:58:08;;;;;;;22.65;14.05;;;3.50;1.00;;;;;;5114427;28;20224;-67
2021/01/27 02:00:35;;;;;;;19.27;14.38;;;3.40;1.00;;;;;;5114357;28;20175;-67
2021/01/27 02:03:01;;;;;;;20.35;13.15;;;3.40;1.00;;;;;;5114397;28;20190;-67
2021/01/27 02:05:27;;;;;;;17.52;12.77;;;3.30;1.00;;;;;;5113888;28;20228;-67
2021/01/27 02:07:56;;;;;;;21.80;13.60;;;3.30;1.00;;;;;;5114100;28;20168;-67
2021/01/27 02:10:22;;;;;;;21.17;14.13;;;3.30;1.00;;;;;;5114129;28;20170;-68
2021/01/27 02:13:06;;;;;;;20.03;13.40;;;3.30;1.00;;;;;;5114200;28;20218;-68
2021/01/27 02:15:50;;;;;;;26.50;14.30;;;3.30;1.00;;;;;;5114258;28;20511;-68
2021/01/27 02:18:57;;;;;;;24.33;13.90;;;3.10;1.00;;;;;;5116229;28;20175;-68
2021/01/27 02:21:48;;;;;;;26.13;13.90;;;3.00;1.00;;;;;;5118221;28;20207;-68
2021/01/27 02:24:41;;;;;;;21.67;13.43;;;3.00;1.00;;;;;;5115978;28;20180;-67
2021/01/27 02:27:24;;;;;;;19.73;13.45;;;2.90;1.00;;;;;;5116272;28;20317;-67
2021/01/27 02:30:17;;;;;;;24.95;13.82;;;3.00;1.00;;;;;;5115674;28;20172;-67
2021/01/27 02:32:51;;;;;;;22.98;14.07;;;3.00;1.00;;;;;;5117042;28;20175;-67
2021/01/27 02:35:52;;;;;;;24.40;15.60;;;2.90;1.00;;;;;;5117939;28;20206;-67
2021/01/27 02:38:33;;;;;;;20.65;14.63;;;2.80;1.00;;;;;;5116094;28;20197;-63
2021/01/27 02:41:19;;;;;;;22.45;13.98;;;2.70;1.00;;;;;;5113976;28;20208;-63
2021/01/27 02:43:51;;;;;;;23.67;14.50;;;2.70;1.00;;;;;;5116591;28;20211;-66
2021/01/27 02:46:26;;;;;;;26.52;13.88;;;2.70;1.00;;;;;;5118426;28;20288;-67
2021/01/27 02:48:51;;;;;;;21.75;14.60;;;2.80;1.00;;;;;;5117784;28;20235;-67
2021/01/27 02:51:26;;;;;;;21.07;14.27;;;2.80;1.00;;;;;;5118971;28;20663;-66
2021/01/27 02:54:01;;;;;;;21.35;14.18;;;2.70;1.00;;;;;;5117654;28;20226;-66
2021/01/27 02:56:30;;;;;;;23.70;15.65;;;2.70;1.00;;;;;;5115251;28;20178;-66
2021/01/27 02:59:09;;;;;;;20.65;14.38;;;2.70;1.00;;;;;;5114426;28;20207;-64
2021/01/27 03:02:06;;;;;;;26.08;15.15;;;2.70;1.00;;;;;;5114372;28;20236;-63
2021/01/27 03:04:40;;;;;;;28.17;15.77;;;2.60;1.00;;;;;;5116946;28;20183;-63
2021/01/27 03:07:07;;;;;;;25.95;14.77;;;2.50;1.00;;;;;;5118406;28;20503;-64
2021/01/27 03:09:44;;;;;;;21.58;14.98;;;2.50;1.00;;;;;;5118192;28;20179;-64
2021/01/27 03:12:10;;;;;;;22.48;14.85;;;2.40;1.00;;;;;;5117619;28;20179;-64
2021/01/27 03:14:35;;;;;;;28.10;16.60;;;2.40;1.00;;;;;;5117571;28;20302;-66
2021/01/27 03:17:07;;;;;;;24.33;17.17;;;2.40;3.70;;;;;;5117629;28;20179;-67
2021/01/27 03:19:39;;;;;;;26.95;17.00;;;2.50;14.10;;;;;;5117702;28;20495;-63
2021/01/27 03:22:17;;;;;;;23.70;15.50;;;2.50;15.40;;;;;;5116387;28;20616;-63
2021/01/27 03:24:57;;;;;;;22.20;15.80;;;2.50;15.60;;;;;;5117361;28;20248;-62
2021/01/27 03:27:27;;;;;;;27.75;16.77;;;2.50;21.30;;;;;;5117334;28;20179;-64
2021/01/27 03:29:56;;;;;;;28.48;17.70;;;2.60;26.70;;;;;;5116369;28;20203;-62
2021/01/27 03:32:31;;;;;;;24.75;16.42;;;2.70;25.30;;;;;;5116233;28;20183;-66
2021/01/27 03:35:32;;;;;;;28.75;16.95;;;2.60;20.10;;;;;;5116863;28;20207;-62
2021/01/27 03:38:15;;;;;;;27.27;17.77;;;2.60;20.90;;;;;;5084500;28;20193;-63
2021/01/27 03:40:44;;;;;;;28.40;17.48;;;2.60;27.70;;;;;;5116822;28;20202;-66
2021/01/27 03:43:28;;;;;;;30.85;19.58;;;2.60;29.30;;;;;;5116751;28;20172;-66
2021/01/27 03:46:19;;;;;;;30.42;20.70;;;2.60;30.30;;;;;;5116688;28;20187;-66
2021/01/27 03:48:53;;;;;;;27.77;18.80;;;2.80;39.10;;;;;;5116561;28;20199;-66
2021/01/27 03:51:20;;;;;;;32.35;17.77;;;2.70;34.10;;;;;;5116052;28;20476;-66
2021/01/27 03:53:45;;;;;;;32.58;19.10;;;2.70;32.90;;;;;;5117014;28;20225;-66
2021/01/27 03:56:29;;;;;;;28.20;18.13;;;2.80;40.90;;;;;;5117101;28;20179;-66
2021/01/27 03:58:55;;;;;;;33.17;20.90;;;2.80;39.00;;;;;;5117032;28;20190;-66
2021/01/27 04:01:22;;;;;;;34.83;21.40;;;2.80;35.20;;;;;;5116940;28;20175;-66
2021/01/27 04:03:52;;;;;;;31.15;18.15;;;2.80;33.10;;;;;;5116421;28;20445;-66
2021/01/27 04:06:18;;;;;;;33.15;21.27;;;2.90;39.00;;;;;;5116824;28;20171;-66
2021/01/27 04:08:44;;;;;;;33.50;21.73;;;2.90;37.70;;;;;;5116747;28;20198;-66
2021/01/27 04:11:09;;;;;;;32.73;21.43;;;2.90;35.50;;;;;;5116774;28;20183;-66
2021/01/27 04:13:35;;;;;;;35.13;20.30;;;3.00;31.60;;;;;;5115982;28;20496;-66
2021/01/27 04:16:01;;;;;;;34.93;23.40;;;3.00;26.80;;;;;;5116528;28;20799;-66
2021/01/27 04:18:27;;;;;;;36.70;22.42;;;3.10;23.00;;;;;;5116946;28;20182;-63
2021/01/27 04:20:54;;;;;;;35.78;23.95;;;3.20;13.20;;;;;;5116589;28;20258;-62
2021/01/27 04:23:19;;;;;;;35.13;21.95;;;3.10;1.00;;;;;;5116294;28;20243;-62
2021/01/27 04:25:45;;;;;;;35.73;22.40;;;3.10;1.00;;;;;;5116569;28;20183;-62
2021/01/27 04:28:11;;;;;;;36.92;22.33;;;2.90;1.00;;;;;;5116440;28;20636;-62
2021/01/27 04:30:37;;;;;;;36.53;23.20;;;3.00;1.00;;;;;;5116977;28;20221;-62
2021/01/27 04:33:07;;;;;;;37.85;22.58;;;3.00;1.00;;;;;;5116204;28;20179;-62
2021/01/27 04:35:33;;;;;;;34.85;22.50;;;2.90;1.00;;;;;;5116371;28;20677;-62
2021/01/27 04:37:59;;;;;;;42.35;24.10;;;3.00;2.80;;;;;;5116418;28;20183;-62
2021/01/27 04:40:32;;;;;;;37.13;23.00;;;3.00;1.90;;;;;;5115237;28;20666;-62
2021/01/27 04:42:58;;;;;;;38.40;24.50;;;3.00;1.00;;;;;;5115182;28;20190;-67
2021/01/27 04:45:25;;;;;;;40.53;23.80;;;3.10;1.00;;;;;;5115872;28;20457;-66
2021/01/27 04:48:40;;;;;;;45.33;24.15;;;3.10;1.00;;;;;;5115910;28;20413;-67
2021/01/27 04:51:10;;;;;;;37.20;22.75;;;3.20;1.00;;;;;;5033519;28;20182;-70
2021/01/27 04:53:53;;;;;;;39.20;25.67;;;3.10;1.00;;;;;;5032945;28;20229;-67
2021/01/27 04:56:48;;;;;;;43.67;26.20;;;3.10;1.00;;;;;;5090442;28;20197;-67
2021/01/27 04:59:25;;;;;;;35.83;22.60;;;3.10;1.00;;;;;;5115812;28;20682;-68
2021/01/27 05:02:02;;;;;;;44.70;25.67;;;3.20;1.00;;;;;;5115632;28;20179;-68
2021/01/27 05:04:56;;;;;;;41.20;24.88;;;3.10;1.00;;;;;;5114982;28;20552;-67
2021/01/27 05:07:29;;;;;;;39.88;25.70;;;3.10;1.00;;;;;;5115186;28;20257;-67
2021/01/27 05:09:57;;;;;;;47.47;27.52;;;3.00;1.00;;;;;;5114313;28;20262;-67
2021/01/27 05:12:26;;;;;;;40.42;26.10;;;3.10;1.00;;;;;;5115474;28;20479;-67
2021/01/27 05:14:54;;;;;;;46.97;25.70;;;3.20;1.00;;;;;;5114904;28;20654;-63
2021/01/27 05:17:20;;;;;;;47.00;25.48;;;3.40;1.00;;;;;;5115161;28;20188;-63
2021/01/27 05:19:48;;;;;;;42.50;26.40;;;3.50;1.00;;;;;;5114896;28;20182;-63
2021/01/27 05:22:16;;;;;;;41.72;25.40;;;3.40;1.00;;;;;;5114836;28;20198;-63
2021/01/27 05:24:42;;;;;;;40.60;24.77;;;3.50;1.00;;;;;;5113856;28;20175;-63
2021/01/27 05:27:25;;;;;;;44.28;25.63;;;3.50;1.00;;;;;;5115154;28;20203;-63
2021/01/27 05:29:56;;;;;;;48.05;24.80;;;3.60;1.00;;;;;;5113963;28;20194;-63
2021/01/27 05:32:24;;;;;;;43.78;26.30;;;3.60;1.00;;;;;;5115536;28;20190;-63
2021/01/27 05:34:56;;;;;;;43.47;27.42;;;3.50;1.00;;;;;;5115012;28;20317;-63
2021/01/27 05:37:27;;;;;;;45.97;27.23;;;3.60;1.00;;;;;;5115048;28;20611;-62
2021/01/27 05:40:10;;;;;;;38.40;24.23;;;3.50;1.00;;;;;;5114826;28;20255;-63
2021/01/27 05:42:37;;;;;;;44.90;27.33;;;3.70;1.00;;;;;;5114703;28;20706;-62
2021/01/27 05:45:25;;;;;;;38.78;24.05;;;3.60;1.00;;;;;;5115988;28;20315;-67
2021/01/27 05:47:51;;;;;;;40.38;22.98;;;3.60;1.00;;;;;;5116917;28;20308;-66
2021/01/27 05:50:28;;;;;;;43.40;26.83;;;3.40;1.00;;;;;;5121914;28;20202;-66
2021/01/27 05:52:53;;;;;;;54.78;30.05;;;3.50;1.00;;;;;;5125851;28;20255;-66
2021/01/27 05:55:19;;;;;;;38.80;23.27;;;3.60;1.00;;;;;;5119475;28;20206;-66
2021/01/27 05:57:57;;;;;;;40.53;25.40;;;3.50;1.00;;;;;;5119039;28;20175;-66
2021/01/27 06:00:28;;;;;;;40.05;25.35;;;3.50;1.00;;;;;;5119253;28;20182;-66
2021/01/27 06:02:55;;;;;;;39.15;24.98;;;3.50;1.00;;;;;;5120031;28;20202;-66
2021/01/27 06:05:33;;;;;;;44.42;26.20;;;3.50;1.00;;;;;;5115376;28;20214;-67
2021/01/27 06:08:13;;;;;;;41.28;26.23;;;3.40;1.00;;;;;;5114918;28;20179;-67
2021/01/27 06:10:40;;;;;;;40.67;25.40;;;3.30;1.00;;;;;;5115092;28;20175;-66
2021/01/27 06:13:27;;;;;;;46.03;25.67;;;3.30;1.00;;;;;;5114479;28;20596;-67
2021/01/27 06:15:54;;;;;;;41.30;23.80;;;3.20;1.00;;;;;;5113642;28;20179;-67
2021/01/27 06:18:25;;;;;;;35.50;24.08;;;3.20;1.00;;;;;;5114734;28;20167;-67
2021/01/27 06:21:12;;;;;;;37.53;21.92;;;3.20;1.00;;;;;;5114184;28;20202;-67
2021/01/27 06:23:59;;;;;;;39.08;25.13;;;3.30;1.00;;;;;;5113970;28;20634;-67
2021/01/27 06:26:36;;;;;;;35.58;21.90;;;3.30;1.00;;;;;;5114197;28;20243;-67
2021/01/27 06:29:20;;;;;;;40.92;23.77;;;3.30;1.00;;;;;;5114065;28;20258;-64
2021/01/27 06:32:03;;;;;;;39.20;23.13;;;3.30;1.00;;;;;;5114010;28;20207;-63
2021/01/27 06:34:54;;;;;;;39.92;24.60;;;3.10;1.00;;;;;;5113731;28;20202;-67
2021/01/27 06:37:27;;;;;;;41.00;24.48;;;3.10;1.00;;;;;;5117622;28;20168;-66
2021/01/27 06:40:25;;;;;;;37.97;24.00;;;3.20;1.00;;;;;;5118048;27;20184;-64
2021/01/27 06:42:56;;;;;;;39.72;25.25;;;3.30;1.00;;;;;;5086424;28;20187;-67
2021/01/27 06:45:35;;;;;;;46.83;27.45;;;3.30;1.00;;;;;;5117953;28;20203;-66
2021/01/27 06:48:10;;;;;;;36.53;22.00;;;3.30;1.00;;;;;;5118227;28;20183;-62
2021/01/27 06:50:57;;;;;;;37.40;23.20;;;3.20;1.00;;;;;;5117769;28;20222;-67
2021/01/27 06:54:02;;;;;;;37.45;22.02;;;3.30;1.00;;;;;;5117510;28;20183;-61
2021/01/27 06:56:41;;;;;;;38.10;23.98;;;3.30;1.00;;;;;;5085738;28;20256;-63
2021/01/27 06:59:57;;;;;;;36.42;22.45;;;3.10;1.00;;;;;;5117697;28;20175;-67
2021/01/27 07:02:34;;;;;;;35.95;23.15;;;3.30;1.00;;;;;;5072505;28;20208;-67
2021/01/27 07:05:29;;;;;;;41.47;23.88;;;3.30;1.00;;;;;;5117142;28;20175;-63
2021/01/27 07:08:06;;;;;;;34.53;23.05;;;3.10;1.00;;;;;;5071873;28;20290;-66
2021/01/27 07:11:03;;;;;;;35.50;23.25;;;3.00;1.00;;;;;;5117580;28;20175;-69
2021/01/27 07:13:50;;;;;;;34.63;23.83;;;3.10;1.00;;;;;;5117351;28;20322;-67
2021/01/27 07:16:28;;;;;;;30.17;21.23;;;3.20;1.00;;;;;;5116173;28;20175;-67
2021/01/27 07:19:09;;;;;;;33.83;21.92;;;3.20;1.00;;;;;;5117035;28;20171;-67
2021/01/27 07:21:42;;;;;;;37.30;22.17;;;3.10;1.00;;;;;;5117208;28;20178;-63
2021/01/27 07:24:25;;;;;;;32.55;21.50;;;3.00;1.00;;;;;;5116717;28;20190;-64
2021/01/27 07:27:07;;;;;;;30.00;20.88;;;3.00;1.00;;;;;;5116995;28;20258;-65
2021/01/27 07:29:36;;;;;;;34.30;23.40;;;3.20;1.00;;;;;;5115198;27;20190;-66
2021/01/27 07:32:25;;;;;;;33.78;22.25;;;3.30;1.00;;;;;;5115573;28;20179;-65
2021/01/27 07:35:30;;;;;;;34.42;22.95;;;3.40;1.00;;;;;;5116390;28;20226;-64
2021/01/27 07:38:05;;;;;;;34.53;24.25;;;3.40;1.00;;;;;;5116003;28;20270;-63
2021/01/27 07:40:49;;;;;;;36.95;23.33;;;3.30;1.00;;;;;;5114900;28;20511;-62
2021/01/27 07:43:34;;;;;;;38.42;24.00;;;3.40;1.00;;;;;;5114014;28;20183;-63
2021/01/27 07:46:00;;;;;;;35.20;22.08;;;3.30;1.00;;;;;;5115979;28;20175;-63
2021/01/27 07:48:45;;;;;;;35.20;22.90;;;3.30;1.00;;;;;;5114424;28;20182;-62
2021/01/27 07:51:28;;;;;;;32.55;22.33;;;3.50;1.00;;;;;;5113279;28;20428;-61
2021/01/27 07:54:04;;;;;;;33.60;22.45;;;3.30;99.90;;;;;;5112364;28;20202;-60
2021/01/27 07:56:42;;;;;;;36.55;24.85;;;3.20;99.90;;;;;;5096487;28;20438;-60
2021/01/27 07:59:25;;;;;;;35.10;22.92;;;3.00;99.90;;;;;;5096407;28;20477;-64
2021/01/27 08:01:56;;;;;;;34.25;23.77;;;3.00;1.00;;;;;;5097559;28;20176;-65
2021/01/27 08:04:27;;;;;;;33.22;22.83;;;2.90;1.00;;;;;;5113393;28;20179;-65
2021/01/27 08:06:55;;;;;;;32.20;24.92;;;2.90;1.00;;;;;;5115489;28;20179;-65
2021/01/27 08:09:34;;;;;;;35.40;23.67;;;2.90;1.00;;;;;;5116607;28;20626;-65
2021/01/27 08:12:28;;;;;;;30.52;22.42;;;3.00;1.00;;;;;;5116637;28;20186;-66
2021/01/27 08:14:59;;;;;;;30.88;23.10;;;2.80;1.00;;;;;;5086202;28;20226;-66
2021/01/27 08:17:55;;;;;;;38.85;26.10;;;2.70;1.00;;;;;;5116221;28;20266;-65
2021/01/27 08:20:25;;;;;;;36.53;25.33;;;2.70;1.00;;;;;;5114702;27;20274;-66
2021/01/27 08:22:53;;;;;;;37.88;23.55;;;2.60;1.00;;;;;;5123495;27;20179;-66
2021/01/27 08:25:48;;;;;;;35.10;24.60;;;2.60;1.00;;;;;;5124949;27;20182;-64
2021/01/27 08:28:35;;;;;;;33.63;23.30;;;2.60;1.00;;;;;;5136910;27;20167;-66
2021/01/27 08:31:12;;;;;;;37.75;24.60;;;2.60;1.00;;;;;;5095772;28;20240;-64
2021/01/27 08:33:50;;;;;;;35.35;23.27;;;2.50;1.00;;;;;;5095616;28;20231;-64
2021/01/27 08:36:41;;;;;;;35.47;24.88;;;2.50;1.00;;;;;;5099796;28;20178;-61
2021/01/27 08:39:11;;;;;;;57.10;32.25;;;2.50;1.00;;;;;;5132269;27;20231;-64
2021/01/27 08:41:57;;;;;;;76.03;38.42;;;2.70;1.00;;;;;;5136639;27;20675;-62
2021/01/27 08:44:28;;;;;;;38.78;24.80;;;2.60;1.00;;;;;;5136328;27;20174;-60
2021/01/27 08:47:16;;;;;;;47.55;27.85;;;2.50;1.00;;;;;;5128487;27;20190;-63
2021/01/27 08:49:50;;;;;;;36.45;23.52;;;2.60;1.00;;;;;;5133953;27;20254;-61
2021/01/27 08:52:16;;;;;;;35.88;24.02;;;2.70;1.00;;;;;;5115557;28;20202;-63
2021/01/27 08:54:41;;;;;;;40.90;24.00;;;2.70;1.00;;;;;;5121427;27;20222;-66
2021/01/27 08:57:33;;;;;;;38.67;23.33;;;2.80;1.00;;;;;;5135973;27;20174;-64
2021/01/27 09:00:02;;;;;;;34.20;23.27;;;3.00;1.00;;;;;;5136100;27;20189;-64
2021/01/27 09:02:45;;;;;;;32.95;25.30;;;3.10;1.00;;;;;;5128963;27;20259;-64
2021/01/27 09:05:19;;;;;;;31.58;20.80;;;3.20;99.90;;;;;;5118582;27;20190;-67
2021/01/27 09:07:49;;;;;;;33.53;20.55;;;3.30;99.90;;;;;;5095202;28;20194;-66
2021/01/27 09:10:16;;;;;;;32.83;21.45;;;3.20;99.90;;;;;;5106047;27;20214;-63
2021/01/27 09:12:41;;;;;;;30.63;20.52;;;3.20;91.80;;;;;;5135569;27;20185;-64
2021/01/27 09:15:07;;;;;;;27.20;20.30;;;3.20;53.30;;;;;;5135249;27;20289;-63
2021/01/27 09:17:34;;;;;;;34.78;24.23;;;3.20;1.00;;;;;;5135618;27;20202;-60
2021/01/27 09:20:00;;;;;;;34.35;21.48;;;3.20;1.00;;;;;;5120008;27;20179;-64
2021/01/27 09:22:26;;;;;;;30.00;19.60;;;3.20;1.00;;;;;;5114243;28;20202;-64
2021/01/27 09:24:55;;;;;;;25.37;18.37;;;3.30;1.00;;;;;;5120331;27;20447;-63
2021/01/27 09:27:27;;;;;;;24.88;16.98;;;3.40;1.00;;;;;;5128456;27;20949;-62
2021/01/27 09:30:08;;;;;;;26.15;17.63;;;3.40;1.00;;;;;;5118712;27;20195;-65
2021/01/27 09:32:34;;;;;;;25.10;17.60;;;3.70;1.00;;;;;;5113497;28;20190;-63
2021/01/27 09:35:22;;;;;;;25.15;16.48;;;3.70;1.00;;;;;;5114375;28;20746;-63
2021/01/27 09:37:56;;;;;;;20.67;16.25;;;3.60;99.90;;;;;;5114534;28;20665;-63
2021/01/27 09:40:29;;;;;;;19.00;14.70;;;3.60;1.00;;;;;;5114935;28;20262;-62
2021/01/27 09:42:57;;;;;;;19.30;13.68;;;3.70;1.00;;;;;;5133082;27;20379;-63
2021/01/27 09:45:27;;;;;;;22.00;15.05;;;3.90;99.90;;;;;;5134911;27;20205;-67
2021/01/27 09:47:53;;;;;;;17.55;13.57;;;4.10;99.90;;;;;;5135557;27;20189;-65
2021/01/27 09:50:20;;;;;;;21.83;13.55;;;4.00;99.90;;;;;;5134068;27;20197;-63
2021/01/27 09:52:55;;;;;;;18.45;12.25;;;4.20;99.90;;;;;;5133961;27;20193;-66
2021/01/27 09:55:21;;;;;;;20.20;14.05;;;4.50;1.00;;;;;;5133795;27;20209;-62
2021/01/27 09:57:50;;;;;;;16.65;12.70;;;4.90;1.00;;;;;;5134867;27;20492;-62
2021/01/27 10:00:39;;;;;;;15.25;11.52;;;5.30;99.90;;;;;;5114721;28;20198;-64
2021/01/27 10:03:18;;;;;;;17.60;11.32;;;5.50;1.00;;;;;;5106534;28;20214;-64
2021/01/27 10:05:44;;;;;;;17.35;11.50;;;5.50;1.00;;;;;;5114571;28;20202;-64
2021/01/27 10:08:31;;;;;;;13.20;10.07;;;5.60;1.00;;;;;;5114703;28;20620;-64
2021/01/27 10:11:04;;;;;;;14.32;9.75;;;5.20;99.90;;;;;;5114075;28;20190;-61
2021/01/27 10:13:33;;;;;;;11.90;9.23;;;5.40;1.00;;;;;;5113900;28;20183;-66
2021/01/27 10:16:07;;;;;;;10.27;8.43;;;5.40;99.90;;;;;;5113213;28;20244;-66
2021/01/27 10:18:33;;;;;;;13.73;8.80;;;5.50;20.20;;;;;;5113237;28;20206;-61
2021/01/27 10:21:02;;;;;;;16.20;8.80;;;5.40;1.00;;;;;;5114376;28;20176;-65
2021/01/27 10:23:38;;;;;;;13.00;8.40;;;5.40;1.00;;;;;;5114012;28;20254;-63
2021/01/27 10:26:22;;;;;;;10.15;7.97;;;5.60;1.00;;;;;;5114222;28;20599;-63
2021/01/27 10:29:08;;;;;;;12.02;8.00;;;5.90;1.00;;;;;;5118332;28;20185;-63
2021/01/27 10:31:35;;;;;;;12.38;8.13;;;6.10;1.00;;;;;;5120010;28;20174;-64
2021/01/27 10:34:01;;;;;;;10.45;7.65;;;6.10;99.90;;;;;;5118511;27;20192;-62
2021/01/27 10:36:38;;;;;;;9.63;7.53;;;5.80;99.90;;;;;;5108816;28;20168;-62
2021/01/27 10:39:17;;;;;;;12.48;8.05;;;5.80;99.90;;;;;;5113614;28;20320;-61
2021/01/27 10:41:45;;;;;;;13.93;8.80;;;5.80;99.90;;;;;;5114306;28;20183;-60
2021/01/27 10:44:21;;;;;;;10.15;7.95;;;6.20;1.00;;;;;;5113770;28;20175;-63
2021/01/27 10:46:57;;;;;;;12.02;7.95;;;6.20;99.90;;;;;;5129587;28;20182;-67
2021/01/27 10:49:24;;;;;;;10.57;8.90;;;5.80;99.90;;;;;;5134592;27;20182;-62
2021/01/27 10:51:49;;;;;;;11.40;8.45;;;5.90;99.90;;;;;;5133890;27;20217;-63
2021/01/27 10:54:21;;;;;;;12.57;8.53;;;5.80;99.90;;;;;;5133166;28;20257;-66
2021/01/27 10:56:53;;;;;;;9.77;7.18;;;5.90;99.90;;;;;;5134607;27;20325;-61
2021/01/27 10:59:19;;;;;;;9.07;7.07;;;6.00;99.90;;;;;;5130116;27;20171;-67
2021/01/27 11:01:45;;;;;;;10.40;6.93;;;6.00;99.90;;;;;;5113817;28;20179;-67
2021/01/27 11:04:10;;;;;;;13.07;7.83;;;5.90;99.90;;;;;;5131942;28;20183;-67
2021/01/27 11:06:38;;;;;;;12.47;8.47;;;5.80;99.90;;;;;;5133098;28;20191;-64
2021/01/27 11:09:04;;;;;;;10.52;6.30;;;5.90;99.90;;;;;;5134330;27;20193;-63
2021/01/27 11:11:30;;;;;;;13.43;8.03;;;6.00;99.90;;;;;;5133181;28;20179;-65
2021/01/27 11:13:55;;;;;;;11.97;8.17;;;6.00;99.90;;;;;;5132914;28;20210;-64
2021/01/27 11:16:21;;;;;;;9.23;7.00;;;6.10;99.90;;;;;;5133609;28;20501;-62
2021/01/27 11:18:46;;;;;;;9.90;6.50;;;6.10;99.90;;;;;;5133718;28;20186;-68
2021/01/27 11:21:12;;;;;;;14.73;7.37;;;6.20;92.70;;;;;;5132372;28;20562;-65
2021/01/27 11:23:38;;;;;;;8.33;6.57;;;6.40;37.80;;;;;;5134318;27;20174;-61
2021/01/27 11:26:03;;;;;;;8.30;5.93;;;6.50;1.00;;;;;;5138208;27;20420;-63
2021/01/27 11:28:29;;;;;;;10.37;5.40;;;6.60;1.00;;;;;;5122013;27;20640;-64
2021/01/27 11:30:58;;;;;;;9.20;5.73;;;6.30;1.00;;;;;;5116105;27;20505;-63
2021/01/27 11:33:25;;;;;;;10.15;7.13;;;6.40;5.10;;;;;;5109036;28;20957;-65
2021/01/27 11:35:52;;;;;;;6.95;5.90;;;6.20;1.00;;;;;;5118802;27;20256;-65
2021/01/27 11:38:18;;;;;;;7.95;5.95;;;6.40;22.30;;;;;;5115208;28;20262;-60
2021/01/27 11:40:44;;;;;;;9.05;6.70;;;6.40;26.90;;;;;;5116325;28;20176;-62
2021/01/27 11:43:09;;;;;;;6.80;5.83;;;6.50;17.60;;;;;;5117321;28;20578;-62
2021/01/27 11:45:35;;;;;;;6.27;4.43;;;6.50;1.00;;;;;;5137319;27;20496;-62
2021/01/27 11:48:01;;;;;;;7.50;5.60;;;6.50;1.00;;;;;;5137230;27;20262;-63
2021/01/27 11:50:28;;;;;;;6.60;4.70;;;6.40;1.00;;;;;;5135759;27;20171;-62
2021/01/27 11:52:55;;;;;;;6.45;4.95;;;6.40;1.00;;;;;;5137663;27;20182;-62
2021/01/27 11:55:22;;;;;;;7.32;4.60;;;6.60;1.00;;;;;;5137066;27;20209;-62
2021/01/27 11:57:48;;;;;;;7.05;5.05;;;6.70;1.00;;;;;;5137244;27;20171;-62
2021/01/27 12:00:17;;;;;;;6.60;5.33;;;6.40;1.00;;;;;;5137120;27;20175;-62
2021/01/27 12:02:43;;;;;;;6.00;4.90;;;6.40;1.00;;;;;;5136758;27;20451;-62
2021/01/27 12:05:09;;;;;;;7.27;5.07;;;6.30;1.00;;;;;;5136857;27;20171;-62
2021/01/27 12:07:35;;;;;;;6.47;4.75;;;6.00;1.00;;;;;;5136953;27;20179;-62
2021/01/27 12:10:00;;;;;;;5.50;3.90;;;6.20;1.00;;;;;;5134232;27;20185;-65
2021/01/27 12:12:26;;;;;;;7.63;4.57;;;6.20;1.00;;;;;;5114736;28;20186;-65
2021/01/27 12:14:52;;;;;;;8.53;4.43;;;6.20;1.00;;;;;;5113999;28;20201;-65
2021/01/27 12:17:18;;;;;;;6.75;4.55;;;5.90;1.00;;;;;;5114870;28;20205;-63
2021/01/27 12:19:44;;;;;;;6.33;5.03;;;6.00;99.90;;;;;;5115785;28;20184;-60
2021/01/27 12:22:09;;;;;;;6.65;4.55;;;6.40;61.90;;;;;;5116013;28;20178;-62
2021/01/27 12:24:35;;;;;;;6.63;4.20;;;6.50;1.00;;;;;;5115798;28;20181;-62
2021/01/27 12:27:01;;;;;;;4.37;3.97;;;6.10;1.00;;;;;;5115973;28;20432;-62
2021/01/27 12:29:26;;;;;;;4.60;3.47;;;5.70;52.20;;;;;;5116034;28;20207;-62
2021/01/27 12:31:53;;;;;;;4.97;4.13;;;5.40;99.90;;;;;;5115851;28;20175;-61
2021/01/27 12:34:19;;;;;;;5.18;3.88;;;5.40;99.90;;;;;;5115087;28;20199;-60
2021/01/27 12:36:46;;;;;;;7.30;4.00;;;5.80;99.90;;;;;;5095380;28;20652;-66
2021/01/27 12:39:12;;;;;;;5.50;3.30;;;6.00;99.90;;;;;;5095435;28;20195;-62
2021/01/27 12:41:38;;;;;;;6.93;4.37;;;5.80;99.90;;;;;;5094172;28;20171;-68
2021/01/27 12:44:04;;;;;;;4.97;3.45;;;5.90;99.90;;;;;;5096496;28;20252;-66
2021/01/27 12:46:30;;;;;;;5.68;4.18;;;5.80;99.90;;;;;;5116220;28;20178;-66
2021/01/27 12:48:56;;;;;;;7.50;5.00;;;5.90;99.90;;;;;;5115626;28;20194;-63
2021/01/27 12:51:21;;;;;;;5.43;4.33;;;5.90;99.90;;;;;;5115180;28;20374;-62
2021/01/27 12:53:47;;;;;;;5.80;4.00;;;5.90;99.90;;;;;;5115112;28;20207;-64
2021/01/27 12:56:13;;;;;;;5.87;4.20;;;5.80;99.90;;;;;;5115271;28;20171;-68
2021/01/27 12:58:39;;;;;;;7.03;3.90;;;5.90;99.90;;;;;;5116178;28;20418;-67
2021/01/27 13:01:05;;;;;;;21.30;11.75;;;5.80;99.90;;;;;;5118545;28;20425;-67
2021/01/27 13:03:31;;;;;;;5.45;4.80;;;5.90;99.90;;;;;;5115268;28;20217;-66
2021/01/27 13:05:57;;;;;;;12.07;6.60;;;5.60;99.90;;;;;;5115247;28;20176;-62
2021/01/27 13:08:22;;;;;;;7.17;4.67;;;5.70;99.90;;;;;;5115255;28;20249;-62
2021/01/27 13:10:48;;;;;;;6.37;4.37;;;5.70;99.90;;;;;;5114907;27;20221;-62
2021/01/27 13:13:15;;;;;;;5.97;4.57;;;5.70;99.90;;;;;;5114675;28;20492;-60
2021/01/27 13:15:41;;;;;;;5.45;4.28;;;5.80;99.90;;;;;;5114563;28;20243;-60